TimeEST,TemperatureF,Dew PointF,Humidity,Sea Level PressureIn,VisibilityMPH,Wind Direction,Wind SpeedMPH,Gust SpeedMPH,PrecipitationIn,Events,Conditions,WindDirDegrees,DateUTC
12:52 AM,19.9,15.1,81,30.06,10.0,NNW,3.5,-,N/A,,Clear,330,2014-02-19 05:52:00
1:52 AM,19.9,14.0,78,30.06,10.0,North,3.5,-,N/A,,Clear,10,2014-02-19 06:52:00
2:52 AM,25.0,17.1,72,30.10,10.0,West,10.4,-,N/A,,Clear,280,2014-02-19 07:52:00
3:52 AM,23.0,16.0,74,30.10,10.0,NNW,4.6,-,N/A,,Clear,330,2014-02-19 08:52:00
4:52 AM,21.0,15.1,78,30.07,10.0,NNW,4.6,-,N/A,,Clear,340,2014-02-19 09:52:00
5:52 AM,16.0,12.0,84,30.06,7.0,Calm,Calm,-,N/A,,Clear,0,2014-02-19 10:52:00
6:52 AM,12.0,10.0,92,30.06,5.0,NNW,3.5,-,N/A,,Clear,340,2014-02-19 11:52:00
7:52 AM,12.9,10.9,92,30.04,7.0,Calm,Calm,-,N/A,,Clear,0,2014-02-19 12:52:00
8:52 AM,21.9,16.0,78,30.03,8.0,NNE,3.5,-,N/A,,Clear,30,2014-02-19 13:52:00
9:52 AM,25.0,18.0,75,30.01,8.0,Calm,Calm,-,N/A,,Clear,0,2014-02-19 14:52:00
10:52 AM,30.0,19.9,66,30.01,10.0,Calm,Calm,-,N/A,,Scattered Clouds,0,2014-02-19 15:52:00
11:52 AM,32.0,21.0,64,29.97,10.0,East,4.6,-,N/A,,Partly Cloudy,90,2014-02-19 16:52:00
12:52 PM,32.0,23.0,69,29.91,10.0,East,3.5,-,N/A,,Mostly Cloudy,100,2014-02-19 17:52:00
1:35 PM,32.0,23.0,69,29.87,10.0,NNW,4.6,-,N/A,,Overcast,330,2014-02-19 18:35:00
1:52 PM,32.0,23.0,69,29.88,6.0,NNW,4.6,-,0.00,Snow,Light Snow,330,2014-02-19 18:52:00
1:57 PM,32.0,24.1,73,29.86,1.5,North,3.5,-,0.00,Snow,Light Snow,360,2014-02-19 18:57:00
2:01 PM,30.9,24.1,76,29.86,1.0,North,3.5,-,0.00,Snow,Light Snow,360,2014-02-19 19:01:00
2:08 PM,30.9,26.1,82,29.84,0.5,Calm,Calm,-,0.00,Snow,Snow,0,2014-02-19 19:08:00
2:25 PM,30.0,27.0,88,29.83,0.2,Calm,Calm,-,0.04,Fog-Snow,Heavy Snow,0,2014-02-19 19:25:00
2:37 PM,30.0,27.0,88,29.82,0.2,Calm,Calm,-,0.07,Fog-Snow,Heavy Snow,0,2014-02-19 19:37:00
2:52 PM,30.0,27.0,88,29.83,0.2,Calm,Calm,-,0.09,Fog-Snow,Snow,0,2014-02-19 19:52:00
3:17 PM,30.0,27.0,88,29.80,0.5,Calm,Calm,-,0.02,Fog-Snow,Snow,0,2014-02-19 20:17:00
3:24 PM,30.0,27.0,88,29.79,0.8,Calm,Calm,-,0.02,Snow,Light Snow,0,2014-02-19 20:24:00
3:28 PM,30.9,27.0,85,29.79,1.2,Calm,Calm,-,0.02,Snow,Light Snow,0,2014-02-19 20:28:00
3:38 PM,30.9,27.0,85,29.79,2.0,Calm,Calm,-,0.03,Snow,Light Snow,0,2014-02-19 20:38:00
3:52 PM,30.9,27.0,85,29.79,4.0,Variable,5.8,-,0.03,,Overcast,0,2014-02-19 20:52:00
4:52 PM,30.9,27.0,85,29.77,5.0,North,5.8,-,0.00,,Overcast,350,2014-02-19 21:52:00
5:52 PM,30.9,28.0,89,29.77,4.0,NW,5.8,-,N/A,,Overcast,310,2014-02-19 22:52:00
6:52 PM,30.0,28.0,92,29.77,4.0,NW,8.1,-,N/A,,Overcast,320,2014-02-19 23:52:00
7:33 PM,30.9,28.9,92,29.76,4.0,WNW,3.5,-,0.01,Rain,Light Freezing Rain,290,2014-02-20 00:33:00
7:52 PM,32.0,28.9,88,29.77,4.0,NW,3.5,-,0.04,Rain,Light Freezing Rain,320,2014-02-20 00:52:00
8:11 PM,32.0,28.9,88,29.75,6.0,North,6.9,-,0.00,,Overcast,350,2014-02-20 01:11:00
8:29 PM,32.0,28.9,88,29.75,6.0,NW,6.9,-,0.00,Rain,Light Freezing Rain,320,2014-02-20 01:29:00
8:52 PM,33.1,30.0,89,29.78,7.0,NNW,3.5,-,0.00,Rain,Light Rain,330,2014-02-20 01:52:00
9:07 PM,33.1,30.0,89,29.78,8.0,NW,3.5,-,0.00,,Overcast,310,2014-02-20 02:07:00
9:45 PM,33.1,28.0,82,29.78,10.0,NW,9.2,-,0.00,,Overcast,310,2014-02-20 02:45:00
9:52 PM,32.0,28.0,85,29.79,10.0,NW,8.1,-,0.00,,Overcast,320,2014-02-20 02:52:00
10:52 PM,33.1,28.0,82,29.82,10.0,NW,9.2,-,N/A,,Overcast,310,2014-02-20 03:52:00
11:52 PM,30.9,27.0,85,29.85,10.0,NNW,5.8,-,N/A,,Scattered Clouds,330,2014-02-20 04:52:00